August 11, 2022

Time Code Weather Temp. Visibility Ceiling Wind METAR/SPECI
21:00
V
20 °C 10 km+ - 150° 150° 15 kt METAR FMEE 111700Z AUTO 15015KT 9999 FEW058/// 20/15 Q1024 TEMPO 4500 SHRA
20:30
V
20 °C 10 km+ - 140° 140° 14 kt METAR FMEE 111630Z AUTO 14014KT 9999 FEW039/// 20/15 Q1024 TEMPO 4500 SHRA
20:00
V
20 °C 10 km+ 6,000 ft 150° 150° 14 kt METAR FMEE 111600Z AUTO 15014KT 9999 FEW048/// BKN060/// 20/15 Q1024 TEMPO 14020G30KT 4500 SHRA
19:30
V
20 °C 10 km+ - 150° 150° 14 kt METAR FMEE 111530Z AUTO 15014KT 9999 SCT052/// 20/15 Q1024 TEMPO 14020G30KT 4500 SHRA
19:00
V
19 °C 10 km+ 4,800 ft 150° 150° 13 kt METAR FMEE 111500Z AUTO 15013KT 9999 FEW041/// BKN048/// BKN054/// 19/15 Q1023 TEMPO 14020G30KT
18:30
V
19 °C 10 km+ 6,000 ft 130° 130° 19 kt METAR FMEE 111430Z AUTO 13019KT 9999 -RA FEW032/// BKN060/// BKN130/// 19/15 Q1023 TEMPO 14020G30KT
18:00
V
21 °C 10 km+ - 140° 140° 14 kt METAR FMEE 111400Z AUTO 14014KT 9999 FEW062/// 21/14 Q1023 TEMPO 14020G30KT
17:30
V
21 °C 10 km+ - 130° 130° 17 kt METAR FMEE 111330Z AUTO 13017KT 9999 NCD 21/14 Q1023 TEMPO 14020G30KT
17:00
V
22 °C 10 km+ - 130° 130° 20 kt METAR FMEE 111300Z AUTO 13020KT 9999 NCD 22/14 Q1023 TEMPO 14020G30KT
16:30
V
22 °C 10 km+ 5,600 ft 140° 140° 19 kt METAR FMEE 111230Z AUTO 14019KT 9999 BKN056/// 22/14 Q1023 TEMPO 14020G30KT
16:00
V
21 °C 10 km+ 5,600 ft 140° 140° 19 kt METAR FMEE 111200Z AUTO 14019KT 9999 SCT047/// OVC056/// 21/15 Q1023 TEMPO 14020G30KT
15:30
V
21 °C 10 km+ 5,800 ft 110° 110° 22 - 33 kt METAR FMEE 111130Z AUTO 11022G33KT 9999 FEW041/// BKN058/// 21/15 Q1023 NOSIG
15:00
V
24 °C 10 km+ - 120° 120° 21 kt METAR FMEE 111100Z AUTO 12021KT 9999 NCD 24/14 Q1023 TEMPO 14020G30KT
14:30
V
24 °C 10 km+ - 120° 120° 21 kt METAR FMEE 111030Z AUTO 12021KT 9999 FEW040/// 24/13 Q1023 TEMPO 14020G30KT
14:00
V
24 °C 10 km+ - 140° 140° 21 kt METAR FMEE 111000Z AUTO 14021KT 9999 FEW052/// 24/14 Q1023 TEMPO 14020G30KT
13:30
V
24 °C 10 km+ - 130° 130° 23 kt METAR FMEE 110930Z AUTO 13023KT 9999 FEW048/// 24/14 Q1023 TEMPO 14020G30KT
13:00
V
24 °C 10 km+ - 130° 130° 22 kt METAR FMEE 110900Z AUTO 13022KT 9999 FEW058/// 24/14 Q1023 TEMPO 14020G30KT
12:30
V
23 °C 10 km+ - 140° 140° 20 kt METAR FMEE 110830Z AUTO 14020KT 9999 NCD 23/16 Q1024 TEMPO 14020G30KT
12:00
V
21 °C 10 km+ 4,300 ft 140° 140° 22 kt METAR FMEE 110800Z AUTO 14022KT 9999 FEW028/// SCT036/// BKN043/// 21/15 Q1024 TEMPO 14020G30KT
11:30
V
20 °C 10 km+ 3,100 ft 120° 120° 23 kt METAR FMEE 110730Z AUTO 12023KT 9999 BKN031/// BKN037/// 20/16 Q1025 TEMPO 14020G30KT
11:00
V
22 °C 10 km+ 7,000 ft 130° 130° 16 kt METAR FMEE 110700Z AUTO 13016KT 090V150 9999 FEW029/// SCT042/// BKN070/// 22/17 Q1024 TEMPO 14020G30KT
10:30
V
21 °C 10 km+ 3,700 ft 140° 140° 19 kt METAR FMEE 110630Z AUTO 14019KT 9999 FEW023/// BKN037/// OVC046/// 21/17 Q1025 TEMPO 14020G30KT
10:00
V
20 °C 10 km+ 5,800 ft 130° 130° 16 kt METAR FMEE 110600Z AUTO 13016KT 9999 FEW034/// SCT045/// OVC058/// 20/17 Q1025 TEMPO 14020G30KT
09:30
V
20 °C 10 km+ 6,000 ft 140° 140° 19 kt METAR FMEE 110530Z AUTO 14019KT 9999 SCT044/// BKN060/// OVC072/// 20/15 Q1025 TEMPO 14020G30KT
09:00
V
20 °C 10 km+ 6,800 ft 140° 140° 16 kt METAR FMEE 110500Z AUTO 14016KT 9999 FEW047/// BKN068/// 20/15 Q1025 TEMPO 14020G30KT
08:30
V
20 °C 10 km+ 6,800 ft 150° 150° 14 kt METAR FMEE 110430Z AUTO 15014KT 9999 FEW026/// SCT047/// BKN068/// 20/15 Q1024 TEMPO 14020G30KT
08:00
V
18 °C 10 km+ 4,000 ft 140° 140° 14 kt METAR FMEE 110400Z AUTO 14014KT 9999 FEW024/// SCT029/// BKN040/// 18/16 Q1024 TEMPO 14020G30KT
07:30
V
18 °C 10 km+ 5,400 ft 160° 160° 13 kt METAR FMEE 110330Z AUTO 16013KT 9999 FEW037/// SCT045/// BKN054/// 18/15 Q1024 TEMPO 14020G30KT
07:00
I
17 °C 2.9 km 3,700 ft 140° 140° 20 kt METAR FMEE 110300Z AUTO 14020KT 110V170 6000 2900 -RADZ FEW025/// OVC037/// 17/16 Q1024 TEMPO 14020G30KT
06:30
I
18 °C 4.9 km 7,400 ft 130° 130° 14 kt METAR FMEE 110230Z AUTO 13014KT 9999 4900 -RA FEW027/// BKN074/// 18/15 Q1024 TEMPO 14020G30KT
06:00
V
18 °C 10 km+ 4,800 ft 150° 150° 13 kt METAR FMEE 110200Z AUTO 15013KT 9999 SCT040/// BKN048/// BKN062/// 18/15 Q1023 TEMPO 14020G30KT 4500 SHRA
05:30
V
17 °C 10 km+ 4,000 ft 130° 130° 14 kt METAR FMEE 110130Z AUTO 13014KT 9999 SCT034/// BKN040/// BKN046/// 17/15 Q1023 TEMPO 14020G30KT 4500 SHRA
05:00
V
19 °C 10 km+ 6,400 ft 150° 150° 16 kt METAR FMEE 110100Z AUTO 15016KT 9999 OVC064/// 19/15 Q1023 TEMPO 14020G30KT 4500 SHRA
04:30
V
19 °C 10 km+ 6,200 ft 150° 150° 15 kt METAR FMEE 110030Z AUTO 15015KT 9999 FEW049/// BKN062/// 19/15 Q1023 TEMPO 14020G30KT 4500 SHRA
04:00
V
18 °C 10 km+ 4,900 ft 130° 130° 11 kt METAR FMEE 110000Z AUTO 13011KT 9999 FEW029/// SCT035/// BKN049/// 18/15 Q1023 TEMPO 14020G30KT 4500 SHRA
03:30
V
18 °C 10 km+ 6,200 ft 150° 150° 13 kt METAR FMEE 102330Z AUTO 15013KT 9999 FEW036/// SCT052/// OVC062/// 18/15 Q1023 TEMPO 14020G30KT
03:00
I
17 °C 4.4 km 4,100 ft 150° 150° 24 kt METAR FMEE 102300Z AUTO 15024KT 9999 4400 FEW032/// BKN041/// BKN060/// 17/16 Q1024 TEMPO 14020G30KT
02:30
V
18 °C 10 km+ 3,900 ft 150° 150° 21 kt METAR FMEE 102230Z AUTO 15021KT 9999 FEW033/// BKN039/// BKN046/// 18/15 Q1024 TEMPO 14020G30KT
02:00
V
19 °C 10 km+ 4,100 ft 140° 140° 16 kt METAR FMEE 102200Z AUTO 14016KT 9999 SCT034/// BKN041/// BKN058/// 19/15 Q1024 TEMPO 14020G30KT
01:30
V
18 °C 10 km+ 4,900 ft 160° 160° 14 kt METAR FMEE 102130Z AUTO 16014KT 9999 FEW035/// SCT043/// BKN049/// 18/15 Q1024 TEMPO 14020G30KT
01:00
M
18 °C 7 km 3,400 ft 140° 140° 22 - 32 kt METAR FMEE 102100Z AUTO 14022G32KT 7000 -RA BKN034/// BKN058/// 18/15 Q1024 NOSIG
00:30
V
19 °C 10 km+ 5,000 ft 150° 150° 22 kt METAR FMEE 102030Z AUTO 15022KT 9999 BKN050/// BKN062/// 19/14 Q1024 TEMPO 14020G30KT
00:00
V
20 °C 10 km+ - 140° 140° 15 kt METAR FMEE 102000Z AUTO 14015KT 9999 FEW062/// 20/12 Q1024 TEMPO 14020G30KT

August 10, 2022

Time Code Weather Temp. Visibility Ceiling Wind METAR/SPECI
23:30
V
20 °C 10 km+ - 140° 140° 17 kt METAR FMEE 101930Z AUTO 14017KT 9999 FEW056/// 20/12 Q1024 TEMPO 14020G30KT
23:00
V
20 °C 10 km+ - 150° 150° 17 kt METAR FMEE 101900Z AUTO 15017KT 9999 FEW046/// 20/13 Q1024 TEMPO 14020G30KT
22:30
V
20 °C 10 km+ - 150° 150° 17 kt METAR FMEE 101830Z AUTO 15017KT 9999 SCT054/// 20/13 Q1024 TEMPO 14020G30KT
22:00
V
20 °C 10 km+ - 140° 140° 19 kt METAR FMEE 101800Z AUTO 14019KT 9999 SCT054/// 20/13 Q1024 TEMPO 14020G30KT
21:30
V
20 °C 10 km+ 5,400 ft 150° 150° 20 kt METAR FMEE 101730Z AUTO 15020KT 9999 BKN054/// 20/13 Q1024 NOSIG
21:00
V
20 °C 10 km+ - 140° 140° 22 kt METAR FMEE 101700Z AUTO 14022KT 9999 SCT056/// 20/13 Q1024 NOSIG
20:30
V
20 °C 10 km+ 5,600 ft 140° 140° 20 kt METAR FMEE 101630Z AUTO 14020KT 9999 BKN056/// 20/13 Q1023 NOSIG
20:00
V
20 °C 10 km+ - 130° 130° 17 kt METAR FMEE 101600Z AUTO 13017KT 9999 SCT056/// 20/13 Q1023 NOSIG
19:30
V
21 °C 10 km+ - 150° 150° 19 kt METAR FMEE 101530Z AUTO 15019KT 9999 FEW052/// 21/11 Q1023 NOSIG
19:00
V
21 °C 10 km+ - 150° 150° 19 kt METAR FMEE 101500Z AUTO 15019KT 9999 NCD 21/11 Q1023 NOSIG
18:30
V
21 °C 10 km+ - 140° 140° 20 kt METAR FMEE 101430Z AUTO 14020KT 9999 FEW054/// 21/11 Q1022 NOSIG
18:00
V
21 °C 10 km+ - 150° 150° 20 kt METAR FMEE 101400Z AUTO 15020KT 9999 FEW054/// 21/11 Q1022 NOSIG
17:30
V
22 °C 10 km+ - 140° 140° 18 kt METAR FMEE 101330Z AUTO 14018KT 9999 NCD 22/11 Q1022 NOSIG
17:00
V
22 °C 10 km+ - 140° 140° 25 kt METAR FMEE 101300Z AUTO 14025KT 9999 NCD 22/12 Q1022 NOSIG
16:30
V
22 °C 10 km+ - 120° 120° 26 kt METAR FMEE 101230Z AUTO 12026KT 9999 NCD 22/11 Q1022 NOSIG
16:00
V
23 °C 10 km+ - 130° 130° 23 - 34 kt METAR FMEE 101200Z AUTO 13023G34KT 9999 NCD 23/11 Q1021 BECMG 13025KT
15:30
V
23 °C 10 km+ - 130° 130° 25 kt METAR FMEE 101130Z AUTO 13025KT 9999 NCD 23/12 Q1021 NOSIG
15:00
V
23 °C 10 km+ - 130° 130° 25 kt METAR FMEE 101100Z AUTO 13025KT 9999 NCD 23/12 Q1021 BECMG 13025G37KT
14:30
V
24 °C 10 km+ - 130° 130° 25 - 37 kt METAR FMEE 101030Z AUTO 13025G37KT 9999 NCD 24/10 Q1021 NOSIG
14:00
V
24 °C 10 km+ - 130° 130° 24 kt METAR FMEE 101000Z AUTO 13024KT 9999 NCD 24/12 Q1022 BECMG 13025G37KT
13:30
V
23 °C 10 km+ - 140° 140° 29 kt METAR FMEE 100930Z AUTO 14029KT 9999 NCD 23/11 Q1022 BECMG 13025G37KT
13:00
V
24 °C 10 km+ - 120° 120° 23 kt METAR FMEE 100900Z AUTO 12023KT 9999 NCD 24/11 Q1022 BECMG 13025G37KT
12:30
V
23 °C 10 km+ - 120° 120° 27 kt METAR FMEE 100830Z AUTO 12027KT 9999 NCD 23/11 Q1023 BECMG 13025G37KT
12:00
V
24 °C 10 km+ - 130° 130° 27 kt METAR FMEE 100800Z AUTO 13027KT 9999 NCD 24/12 Q1023 BECMG 13025G37KT
11:30
V
24 °C 10 km+ - 130° 130° 25 - 37 kt METAR FMEE 100730Z AUTO 13025G37KT 9999 NCD 24/10 Q1023 NOSIG
11:00
V
23 °C 10 km+ - 120° 120° 28 kt METAR FMEE 100700Z AUTO 12028KT 9999 NCD 23/11 Q1023 BECMG 10020G30KT
10:30
V
23 °C 10 km+ - 140° 140° 21 kt METAR FMEE 100630Z AUTO 14021KT 9999 NCD 23/11 Q1024 BECMG 10020G30KT
10:00
V
21 °C 10 km+ - 130° 130° 23 kt METAR FMEE 100600Z AUTO 13023KT 9999 NCD 21/13 Q1024 BECMG 10020G30KT
09:30
V
21 °C 10 km+ - 130° 130° 22 kt METAR FMEE 100530Z AUTO 13022KT 9999 NCD 21/14 Q1024 BECMG 10020G30KT
09:00
V
21 °C 10 km+ - 140° 140° 22 kt METAR FMEE 100500Z AUTO 14022KT 9999 NCD 21/13 Q1024 BECMG 12025G35KT
08:30
V
21 °C 10 km+ - 140° 140° 15 kt METAR FMEE 100430Z AUTO 14015KT 9999 FEW056/// 21/12 Q1024 BECMG 12025G35KT
08:00
V
19 °C 10 km+ - 140° 140° 12 kt METAR FMEE 100400Z AUTO 14012KT 9999 NCD 19/11 Q1024 BECMG 12025G35KT
07:30
V
19 °C 10 km+ - 140° 140° 13 kt METAR FMEE 100330Z AUTO 14013KT 9999 NCD 19/11 Q1024 BECMG 12025G35KT
07:00
V
18 °C 10 km+ - 150° 150° 14 kt METAR FMEE 100300Z AUTO 15014KT 9999 FEW054/// 18/12 Q1023 BECMG 12025G35KT
06:30
V
19 °C 10 km+ - 150° 150° 12 kt METAR FMEE 100230Z AUTO 15012KT 9999 SCT050/// 19/12 Q1023 BECMG 12025G35KT
06:00
V
18 °C 10 km+ - 130° 130° 12 kt METAR FMEE 100200Z AUTO 13012KT 9999 FEW044/// 18/12 Q1023 BECMG 13015G30KT
05:30
V
19 °C 10 km+ - 140° 140° 13 kt METAR FMEE 100130Z AUTO 14013KT 9999 NCD 19/11 Q1022 BECMG 13015G30KT
05:00
V
19 °C 10 km+ - 140° 140° 14 kt METAR FMEE 100100Z AUTO 14014KT 9999 NCD 19/12 Q1022 BECMG 13015G30KT
04:30
V
19 °C 10 km+ - 140° 140° 13 kt METAR FMEE 100030Z AUTO 14013KT 9999 NCD 19/12 Q1022 BECMG 13015G30KT
04:00
V
19 °C 10 km+ - 140° 140° 14 kt METAR FMEE 100000Z AUTO 14014KT 9999 FEW041/// 19/12 Q1022 BECMG 13015G30KT
03:30
V
19 °C 10 km+ - 130° 130° 11 kt METAR FMEE 092330Z AUTO 13011KT 9999 NCD 19/12 Q1022 BECMG 13018G28KT
03:00
V
19 °C 10 km+ - 140° 140° 15 kt METAR FMEE 092300Z AUTO 14015KT 9999 NCD 19/12 Q1022 BECMG 13018G28KT
02:30
V
19 °C 10 km+ - 120° 120° 14 kt METAR FMEE 092230Z AUTO 12014KT 9999 NCD 19/11 Q1022 BECMG 13018G28KT
02:00
V
19 °C 10 km+ - 120° 120° 14 kt METAR FMEE 092200Z AUTO 12014KT 9999 NCD 19/11 Q1022 BECMG 13018G28KT
01:30
V
19 °C 10 km+ - 120° 120° 17 kt METAR FMEE 092130Z AUTO 12017KT 9999 FEW042/// 19/12 Q1023 BECMG 13018G28KT
01:00
V
20 °C 10 km+ 4,100 ft 140° 140° 19 kt METAR FMEE 092100Z AUTO 14019KT 9999 BKN041/// 20/12 Q1023 BECMG 13018G28KT
00:30
V
19 °C 10 km+ 3,900 ft 130° 130° 15 kt METAR FMEE 092030Z AUTO 13015KT 9999 BKN039/// 19/12 Q1022 BECMG 13018G28KT
00:00
V
19 °C 10 km+ - 130° 130° 16 kt METAR FMEE 092000Z AUTO 13016KT 9999 FEW039/// 19/12 Q1022 BECMG 13018G28KT

August 9, 2022

Time Code Weather Temp. Visibility Ceiling Wind METAR/SPECI
23:30
V
20 °C 10 km+ 3,600 ft 130° 130° 18 - 29 kt METAR FMEE 091930Z AUTO 13018G29KT 9999 BKN036/// 20/13 Q1023 NOSIG
23:00
V
20 °C 10 km+ 3,500 ft 140° 140° 13 kt METAR FMEE 091900Z AUTO 14013KT 9999 BKN035/// 20/13 Q1022 BECMG 13018G28KT
22:30
V
19 °C 10 km+ - 120° 120° 10 kt METAR FMEE 091830Z AUTO 12010KT 9999 SCT038/// 19/14 Q1022 BECMG 13018G28KT
22:00
V
19 °C 10 km+ 3,700 ft 130° 130° 10 kt METAR FMEE 091800Z AUTO 13010KT 9999 BKN037/// 19/15 Q1022 BECMG 13018G28KT
21:30
V
19 °C 10 km+ - 130° 130° 8 kt METAR FMEE 091730Z AUTO 13008KT 9999 NCD 19/15 Q1022 BECMG 13016G27KT
21:00
V
20 °C 10 km+ - 130° 130° 8 kt METAR FMEE 091700Z AUTO 13008KT 9999 NCD 20/15 Q1022 BECMG 13016G27KT
20:30
V
20 °C 10 km+ - 130° 130° 13 kt METAR FMEE 091630Z AUTO 13013KT 9999 NCD 20/15 Q1022 BECMG 13016G27KT
20:00
V
20 °C 10 km+ - 120° 120° 12 kt METAR FMEE 091600Z AUTO 12012KT 9999 FEW034/// 20/15 Q1022 BECMG 13016G27KT
19:30
V
20 °C 10 km+ 14,000 ft 120° 120° 13 kt METAR FMEE 091530Z AUTO 12013KT 9999 FEW032/// SCT045/// BKN140/// 20/15 Q1022 BECMG 13016G27KT
19:00
V
21 °C 10 km+ 4,300 ft 130° 130° 15 kt METAR FMEE 091500Z AUTO 13015KT 9999 BKN043/// 21/16 Q1022 BECMG 13016G27KT
Older data

We and third parties follow your internet behavior on our website with cookies. If you continue, we assume you agree with our cookie policy. Learn more